createdAt,value
2022-11-30T00:00:48.880Z,5.75
2022-11-30T00:03:34.464Z,5.68
2022-11-30T00:06:23.354Z,5.90
2022-11-30T00:09:08.922Z,6.07
2022-11-30T00:11:54.565Z,6.30
2022-11-30T00:14:40.152Z,5.82
2022-11-30T00:17:25.654Z,5.90
2022-11-30T00:20:12.039Z,5.70
2022-11-30T00:22:58.239Z,5.97
2022-11-30T00:25:43.542Z,6.57
2022-11-30T00:28:30.818Z,5.80
2022-11-30T00:31:17.885Z,5.50
2022-11-30T00:34:03.370Z,6.07
2022-11-30T00:36:48.769Z,5.38
2022-11-30T00:39:35.783Z,5.68
2022-11-30T00:42:21.676Z,5.22
2022-11-30T00:45:07.700Z,5.30
2022-11-30T00:47:53.329Z,5.15
2022-11-30T00:50:38.861Z,5.93
2022-11-30T00:53:24.511Z,5.40
2022-11-30T00:56:10.656Z,5.50
2022-11-30T00:58:56.140Z,5.50
2022-11-30T01:01:41.799Z,6.00
2022-11-30T01:04:27.153Z,5.22
2022-11-30T01:07:12.631Z,5.05
2022-11-30T01:09:58.202Z,5.03
2022-11-30T01:12:43.853Z,5.22
2022-11-30T01:15:30.282Z,5.22
2022-11-30T01:18:16.859Z,5.00
2022-11-30T01:21:06.332Z,5.50
2022-11-30T01:23:52.294Z,4.70
2022-11-30T01:26:37.773Z,4.47
2022-11-30T01:29:23.093Z,4.50
2022-11-30T01:32:08.788Z,4.20
2022-11-30T01:34:54.311Z,4.25
2022-11-30T01:37:39.646Z,3.95
2022-11-30T01:40:25.337Z,3.65
2022-11-30T01:43:12.015Z,3.20
2022-11-30T01:45:57.641Z,3.70
2022-11-30T01:48:42.747Z,4.00
2022-11-30T01:51:33.855Z,3.92
2022-11-30T01:54:41.953Z,4.20
2022-11-30T01:57:51.494Z,3.63
2022-11-30T02:00:36.978Z,4.30
2022-11-30T02:03:46.204Z,4.45
2022-11-30T02:06:32.235Z,4.82
2022-11-30T02:09:20.868Z,3.75
2022-11-30T02:12:11.983Z,4.38
2022-11-30T02:15:01.163Z,4.38
2022-11-30T02:18:02.109Z,4.10
2022-11-30T02:20:58.052Z,4.47
2022-11-30T02:24:00.221Z,5.00
2022-11-30T02:27:06.455Z,4.72
2022-11-30T02:30:13.736Z,4.32
2022-11-30T02:33:12.070Z,4.30
2022-11-30T02:35:59.466Z,4.43
2022-11-30T02:38:45.929Z,4.23
2022-11-30T02:41:39.310Z,3.72
2022-11-30T02:44:25.640Z,3.33
2022-11-30T02:47:27.507Z,3.70
2022-11-30T02:50:18.782Z,3.37
2022-11-30T02:53:04.460Z,3.40
2022-11-30T02:55:49.949Z,3.50
2022-11-30T02:58:36.185Z,3.60
2022-11-30T03:01:22.448Z,3.63
2022-11-30T03:04:08.224Z,3.30
2022-11-30T03:06:53.621Z,3.60
2022-11-30T03:09:39.171Z,3.40
2022-11-30T03:12:24.976Z,3.40
2022-11-30T03:15:10.860Z,3.50
2022-11-30T03:17:56.246Z,3.10
2022-11-30T03:20:42.929Z,2.95
2022-11-30T03:23:30.070Z,2.75
2022-11-30T03:26:15.242Z,2.38
2022-11-30T03:29:00.935Z,2.80
2022-11-30T03:31:46.513Z,2.60
2022-11-30T03:34:32.126Z,2.35
2022-11-30T03:37:17.556Z,1.90
2022-11-30T03:40:03.807Z,1.70
2022-11-30T03:42:49.416Z,1.60
2022-11-30T03:45:34.970Z,1.50
2022-11-30T03:48:20.604Z,1.77
2022-11-30T03:51:06.246Z,3.10
2022-11-30T03:53:51.882Z,2.47
2022-11-30T03:56:37.899Z,3.92
2022-11-30T03:59:23.156Z,2.10
2022-11-30T04:02:08.895Z,2.30
2022-11-30T04:04:54.478Z,2.20
2022-11-30T04:07:40.214Z,1.67
2022-11-30T04:10:25.474Z,1.60
2022-11-30T04:13:11.065Z,1.50
2022-11-30T04:15:56.975Z,1.70
2022-11-30T04:18:42.422Z,1.70
2022-11-30T04:21:27.819Z,1.40
2022-11-30T04:24:13.402Z,1.50
2022-11-30T04:26:58.924Z,1.65
2022-11-30T04:29:44.533Z,1.80
2022-11-30T04:32:29.974Z,1.60
2022-11-30T04:35:15.653Z,1.50
2022-11-30T04:38:01.487Z,1.60
2022-11-30T04:40:46.775Z,1.60
2022-11-30T04:43:32.269Z,1.80
2022-11-30T04:46:17.712Z,1.60
2022-11-30T04:49:03.396Z,1.73
2022-11-30T04:51:49.255Z,2.00
2022-11-30T04:54:34.716Z,1.67
2022-11-30T04:57:20.397Z,1.50
2022-11-30T05:00:06.826Z,1.60
2022-11-30T05:02:53.307Z,1.60
2022-11-30T05:05:39.029Z,1.63
2022-11-30T05:08:24.701Z,1.63
2022-11-30T05:11:10.223Z,1.47
2022-11-30T05:13:55.771Z,1.40
2022-11-30T05:16:41.290Z,1.50
2022-11-30T05:19:27.068Z,1.37
2022-11-30T05:22:12.414Z,1.67
2022-11-30T05:24:57.979Z,1.50
2022-11-30T05:27:43.424Z,1.60
2022-11-30T05:30:29.158Z,1.50
2022-11-30T05:33:14.706Z,1.70
2022-11-30T05:36:01.686Z,1.70
2022-11-30T05:38:49.067Z,1.70
2022-11-30T05:41:34.321Z,1.58
2022-11-30T05:44:19.784Z,1.50
2022-11-30T05:47:05.604Z,1.97
2022-11-30T05:49:50.830Z,2.00
2022-11-30T05:52:36.401Z,2.30
2022-11-30T05:55:25.465Z,2.65
2022-11-30T05:58:10.786Z,2.83
2022-11-30T06:00:56.212Z,3.15
2022-11-30T06:03:41.677Z,2.93
2022-11-30T06:06:27.234Z,3.13
2022-11-30T06:09:12.840Z,3.20
2022-11-30T06:11:58.164Z,3.10
2022-11-30T06:14:43.823Z,3.80
2022-11-30T06:17:29.479Z,3.67
2022-11-30T06:20:15.130Z,3.55
2022-11-30T06:23:00.775Z,3.77
2022-11-30T06:25:46.381Z,3.03
2022-11-30T06:28:31.901Z,3.17
2022-11-30T06:31:17.639Z,3.43
2022-11-30T06:34:03.045Z,3.20
2022-11-30T06:36:48.378Z,3.80
2022-11-30T06:40:04.376Z,3.83
2022-11-30T06:45:24.616Z,3.53
2022-11-30T06:48:10.018Z,3.90
2022-11-30T06:50:55.462Z,4.13
2022-11-30T06:53:43.485Z,3.83
2022-11-30T06:56:28.876Z,4.20
2022-11-30T06:59:14.475Z,3.60
2022-11-30T07:02:04.321Z,3.93
2022-11-30T07:04:53.253Z,4.27
2022-11-30T07:07:39.068Z,3.92
2022-11-30T07:10:24.580Z,3.97
2022-11-30T07:13:11.109Z,4.30
2022-11-30T07:15:56.772Z,4.60
2022-11-30T07:18:42.238Z,4.27
2022-11-30T07:21:27.780Z,4.53
2022-11-30T07:24:32.136Z,4.30
2022-11-30T07:27:17.536Z,4.53
2022-11-30T07:30:03.550Z,4.45
2022-11-30T07:32:49.126Z,5.05
2022-11-30T07:35:34.495Z,4.15
2022-11-30T07:38:20.284Z,5.03
2022-11-30T07:41:05.941Z,4.47
2022-11-30T07:43:51.077Z,4.55
2022-11-30T07:46:38.048Z,4.85
2022-11-30T07:49:23.360Z,4.63
2022-11-30T07:52:08.772Z,4.93
2022-11-30T07:54:54.381Z,4.93
2022-11-30T07:57:40.059Z,4.60
2022-11-30T08:00:25.802Z,4.68
2022-11-30T08:03:11.330Z,4.13
2022-11-30T08:06:04.952Z,4.88
2022-11-30T08:08:51.859Z,4.43
2022-11-30T08:11:37.228Z,4.93
2022-11-30T08:14:22.364Z,5.30
2022-11-30T08:17:09.627Z,5.28
2022-11-30T08:19:55.035Z,4.75
2022-11-30T08:22:40.558Z,5.30
2022-11-30T08:25:26.112Z,4.93
2022-11-30T08:28:11.638Z,4.57
2022-11-30T08:31:01.591Z,4.30
2022-11-30T08:33:48.065Z,4.40
2022-11-30T08:36:34.482Z,4.05
2022-11-30T08:39:19.921Z,4.10
2022-11-30T08:42:05.405Z,4.57
2022-11-30T08:44:50.612Z,3.97
2022-11-30T08:47:36.206Z,3.83
2022-11-30T08:50:21.760Z,3.50
2022-11-30T08:53:07.362Z,3.72
2022-11-30T08:55:58.283Z,3.58
2022-11-30T08:58:43.891Z,3.30
2022-11-30T09:01:31.503Z,3.25
2022-11-30T09:04:18.360Z,3.30
2022-11-30T09:07:04.311Z,2.90
2022-11-30T09:09:49.848Z,2.60
2022-11-30T09:12:39.697Z,2.90
2022-11-30T09:15:25.297Z,3.00
2022-11-30T09:18:11.268Z,3.13
2022-11-30T09:21:01.861Z,3.20
2022-11-30T09:23:48.809Z,3.20
2022-11-30T09:26:34.152Z,2.80
2022-11-30T09:29:19.769Z,4.03
2022-11-30T09:32:05.240Z,3.47
2022-11-30T09:34:51.035Z,3.42
2022-11-30T09:37:36.528Z,3.42
2022-11-30T09:40:25.324Z,2.95
2022-11-30T09:43:24.797Z,3.30
2022-11-30T09:46:10.498Z,3.30
2022-11-30T09:49:18.936Z,3.20
2022-11-30T09:52:09.883Z,3.17
2022-11-30T09:54:56.308Z,3.25
2022-11-30T09:57:52.986Z,3.72
2022-11-30T10:00:39.615Z,3.15
2022-11-30T10:03:25.608Z,3.40
2022-11-30T10:06:32.708Z,3.55
2022-11-30T10:09:34.722Z,3.67
2022-11-30T10:12:29.133Z,3.00
2022-11-30T10:15:17.821Z,4.15
2022-11-30T10:18:23.556Z,4.05
2022-11-30T10:21:09.048Z,4.07
2022-11-30T10:24:18.554Z,4.80
2022-11-30T10:27:37.114Z,4.20
2022-11-30T10:30:25.005Z,4.05
2022-11-30T10:33:19.655Z,4.10
2022-11-30T10:36:15.386Z,4.53
2022-11-30T10:39:05.792Z,4.45
2022-11-30T10:42:18.926Z,4.03
2022-11-30T10:45:13.258Z,4.93
2022-11-30T10:48:12.591Z,4.45
2022-11-30T10:50:59.922Z,4.78
2022-11-30T10:53:45.170Z,4.60
2022-11-30T10:56:30.496Z,4.97
2022-11-30T10:59:25.985Z,4.70
2022-11-30T11:02:33.827Z,5.28
2022-11-30T11:05:23.604Z,5.90
2022-11-30T11:08:27.795Z,5.25
2022-11-30T11:11:35.118Z,5.80
2022-11-30T11:14:23.428Z,5.97
2022-11-30T11:17:18.078Z,6.05
2022-11-30T11:22:49.263Z,5.68
2022-11-30T11:25:36.878Z,6.72
2022-11-30T11:28:24.473Z,6.50
2022-11-30T11:31:46.532Z,8.52
2022-11-30T11:34:34.415Z,7.05
2022-11-30T11:37:31.544Z,7.40
2022-11-30T11:40:20.283Z,6.53
2022-11-30T11:43:16.976Z,7.22
2022-11-30T11:46:12.450Z,6.70
2022-11-30T11:49:07.758Z,6.47
2022-11-30T11:52:06.626Z,5.80
2022-11-30T11:55:00.497Z,6.25
2022-11-30T11:57:56.224Z,6.18
2022-11-30T12:00:41.509Z,6.43
2022-11-30T12:03:45.597Z,6.25
2022-11-30T12:06:34.266Z,6.30
2022-11-30T12:09:28.111Z,6.75
2022-11-30T12:12:13.955Z,6.20
2022-11-30T12:15:02.401Z,6.43
2022-11-30T12:18:23.732Z,6.70
2022-11-30T12:21:20.905Z,8.32
2022-11-30T12:24:21.353Z,7.95
2022-11-30T12:27:50.471Z,7.60
2022-11-30T12:30:57.018Z,7.57
2022-11-30T12:33:54.609Z,8.48
2022-11-30T12:36:58.437Z,9.18
2022-11-30T12:39:43.970Z,8.45
2022-11-30T12:42:38.516Z,7.45
2022-11-30T12:45:27.069Z,7.95
2022-11-30T12:48:32.767Z,9.35
2022-11-30T12:51:18.130Z,8.20
2022-11-30T12:54:24.858Z,7.57
2022-11-30T12:57:17.946Z,9.27
2022-11-30T13:00:24.116Z,11.77
2022-11-30T13:03:24.916Z,10.80
2022-11-30T13:06:20.887Z,11.65
2022-11-30T13:09:28.209Z,11.75
2022-11-30T13:12:25.517Z,11.03
2022-11-30T13:15:20.038Z,11.65
2022-11-30T13:18:07.632Z,10.85
2022-11-30T13:21:09.422Z,11.53
2022-11-30T13:24:01.388Z,11.80
2022-11-30T13:26:57.479Z,11.07
2022-11-30T13:29:55.194Z,11.10
2022-11-30T13:35:54.336Z,12.20
2022-11-30T13:38:39.767Z,12.13
2022-11-30T13:41:25.012Z,11.70
2022-11-30T13:44:33.141Z,13.03
2022-11-30T13:47:34.631Z,12.57
2022-11-30T13:50:25.284Z,12.50
2022-11-30T13:53:23.346Z,13.30
2022-11-30T13:56:17.944Z,12.47
2022-11-30T13:59:24.910Z,12.48
2022-11-30T14:05:52.409Z,12.00
2022-11-30T14:08:38.696Z,11.15
2022-11-30T14:11:39.421Z,10.97
2022-11-30T14:14:45.876Z,10.77
2022-11-30T14:17:35.034Z,9.90
2022-11-30T14:20:22.395Z,10.32
2022-11-30T14:23:15.799Z,10.93
2022-11-30T14:26:10.780Z,9.07
2022-11-30T14:29:05.918Z,9.63
2022-11-30T14:32:03.031Z,9.45
2022-11-30T14:34:51.550Z,9.37
2022-11-30T14:37:55.657Z,8.70
2022-11-30T14:40:50.461Z,8.03
2022-11-30T14:46:21.039Z,8.13
2022-11-30T14:49:18.474Z,7.43
2022-11-30T14:52:04.665Z,7.57
2022-11-30T14:55:04.466Z,7.40
2022-11-30T14:58:16.223Z,7.83
2022-11-30T15:01:13.726Z,7.17
2022-11-30T15:04:11.216Z,7.13
2022-11-30T15:06:57.450Z,6.67
2022-11-30T15:09:45.823Z,7.60
2022-11-30T15:12:33.220Z,5.57
2022-11-30T15:15:22.057Z,5.77
2022-11-30T15:18:17.139Z,5.60
2022-11-30T15:21:08.404Z,4.80
2022-11-30T15:24:00.009Z,5.43
2022-11-30T15:27:04.324Z,5.30
2022-11-30T15:29:59.225Z,4.97
2022-11-30T15:32:46.992Z,5.23
2022-11-30T15:35:50.335Z,4.97
2022-11-30T15:38:39.213Z,4.80
2022-11-30T15:41:25.920Z,4.93
2022-11-30T15:44:25.502Z,5.07
2022-11-30T15:47:37.863Z,5.33
2022-11-30T15:50:29.285Z,5.30
2022-11-30T15:53:25.350Z,4.87
2022-11-30T15:56:23.531Z,4.53
2022-11-30T15:59:14.953Z,5.10
2022-11-30T16:02:02.615Z,4.67
2022-11-30T16:04:57.515Z,4.63
2022-11-30T16:08:06.360Z,4.43
2022-11-30T16:10:52.073Z,4.70
2022-11-30T16:13:37.593Z,4.20
2022-11-30T16:16:30.835Z,4.70
2022-11-30T16:19:16.471Z,6.20
2022-11-30T16:22:02.705Z,5.30
2022-11-30T16:24:48.535Z,5.10
2022-11-30T16:27:33.956Z,4.30
2022-11-30T16:30:24.286Z,4.70
2022-11-30T16:33:14.520Z,4.67
2022-11-30T16:36:08.467Z,4.43
2022-11-30T16:38:54.256Z,4.87
2022-11-30T16:41:39.831Z,4.90
2022-11-30T16:44:25.184Z,4.70
2022-11-30T16:47:10.764Z,5.20
2022-11-30T16:49:56.278Z,4.43
2022-11-30T16:52:42.608Z,5.07
2022-11-30T16:55:35.051Z,4.60
2022-11-30T16:58:20.443Z,5.10
2022-11-30T17:01:10.926Z,5.57
2022-11-30T17:03:56.687Z,4.93
2022-11-30T17:06:42.359Z,5.63
2022-11-30T17:09:29.884Z,5.20
2022-11-30T17:12:15.122Z,5.07
2022-11-30T17:15:00.539Z,5.27
2022-11-30T17:17:46.147Z,4.97
2022-11-30T17:20:31.761Z,5.40
2022-11-30T17:23:17.020Z,5.37
2022-11-30T17:26:02.768Z,5.70
2022-11-30T17:28:48.114Z,5.73
2022-11-30T17:31:33.805Z,6.13
2022-11-30T17:34:19.581Z,6.03
2022-11-30T17:37:05.070Z,5.70
2022-11-30T17:39:50.573Z,5.67
2022-11-30T17:42:35.853Z,5.70
2022-11-30T17:45:21.293Z,5.43
2022-11-30T17:48:06.959Z,6.00
2022-11-30T17:50:52.589Z,5.43
2022-11-30T17:53:39.677Z,5.78
2022-11-30T17:56:26.257Z,6.00
2022-11-30T17:59:11.846Z,6.03
2022-11-30T18:01:57.481Z,6.50
2022-11-30T18:04:43.138Z,6.03
2022-11-30T18:07:28.837Z,6.00
2022-11-30T18:10:15.334Z,6.03
2022-11-30T18:13:00.720Z,6.57
2022-11-30T18:15:46.133Z,6.03
2022-11-30T18:18:32.009Z,6.10
2022-11-30T18:21:22.596Z,5.60
2022-11-30T18:24:09.475Z,6.23
2022-11-30T18:26:55.010Z,6.17
2022-11-30T18:29:40.409Z,6.17
2022-11-30T18:32:25.806Z,5.93
2022-11-30T18:35:11.492Z,6.00
2022-11-30T18:37:57.734Z,6.23
2022-11-30T18:40:43.633Z,7.30
2022-11-30T18:43:30.663Z,7.73
2022-11-30T18:46:16.116Z,6.77
2022-11-30T18:49:02.147Z,6.53
2022-11-30T18:51:47.559Z,6.93
2022-11-30T18:54:33.225Z,6.97
2022-11-30T18:57:18.699Z,7.10
2022-11-30T19:00:05.512Z,6.77
2022-11-30T19:02:51.061Z,7.00
2022-11-30T19:05:38.240Z,7.33
2022-11-30T19:08:23.501Z,8.83
2022-11-30T19:11:09.705Z,8.83
2022-11-30T19:13:56.922Z,8.50
2022-11-30T19:16:43.141Z,8.13
2022-11-30T19:19:28.806Z,9.17
2022-11-30T19:22:14.412Z,9.77
2022-11-30T19:25:00.529Z,9.90
2022-11-30T19:27:46.044Z,9.80
2022-11-30T19:30:31.844Z,9.57
2022-11-30T19:33:17.908Z,9.00
2022-11-30T19:36:04.966Z,9.83
2022-11-30T19:38:53.488Z,10.87
2022-11-30T19:41:39.088Z,10.53
2022-11-30T19:44:24.270Z,10.77
2022-11-30T19:47:09.831Z,10.83
2022-11-30T19:49:55.376Z,11.07
2022-11-30T19:52:40.913Z,10.43
2022-11-30T19:55:26.170Z,10.07
2022-11-30T19:58:11.703Z,10.93
2022-11-30T20:00:57.089Z,10.23
2022-11-30T20:03:44.426Z,10.50
2022-11-30T20:06:33.398Z,9.87
2022-11-30T20:09:18.889Z,9.97
2022-11-30T20:12:04.875Z,9.87
2022-11-30T20:14:50.948Z,9.50
2022-11-30T20:17:36.652Z,9.10
2022-11-30T20:20:21.848Z,9.50
2022-11-30T20:23:07.706Z,8.97
2022-11-30T20:25:52.877Z,8.90
2022-11-30T20:28:40.860Z,8.57
2022-11-30T20:31:27.930Z,8.43
2022-11-30T20:34:13.653Z,8.67
2022-11-30T20:36:59.154Z,7.90
2022-11-30T20:39:46.189Z,8.67
2022-11-30T20:42:32.109Z,8.70
2022-11-30T20:45:17.500Z,8.93
2022-11-30T20:48:03.269Z,8.00
2022-11-30T20:51:14.193Z,7.63
2022-11-30T20:53:54.424Z,7.80
2022-11-30T20:56:40.533Z,7.77
2022-11-30T20:59:26.924Z,6.83
2022-11-30T21:02:12.511Z,7.10
2022-11-30T21:04:58.164Z,6.77
2022-11-30T21:07:43.775Z,7.17
2022-11-30T21:10:29.221Z,7.40
2022-11-30T21:13:15.200Z,7.63
2022-11-30T21:16:03.248Z,8.87
2022-11-30T21:18:48.507Z,7.73
2022-11-30T21:21:35.717Z,9.30
2022-11-30T21:24:21.448Z,8.40
2022-11-30T21:27:07.145Z,8.87
2022-11-30T21:29:52.447Z,8.33
2022-11-30T21:32:37.760Z,9.37
2022-11-30T21:35:23.452Z,9.60
2022-11-30T21:38:08.645Z,9.33
2022-11-30T21:40:59.196Z,9.43
2022-11-30T21:43:44.838Z,9.57
2022-11-30T21:46:30.627Z,9.07
2022-11-30T21:49:16.407Z,9.80
2022-11-30T21:52:01.942Z,9.50
2022-11-30T21:54:53.297Z,10.93
2022-11-30T21:57:39.371Z,10.50
2022-11-30T22:00:24.762Z,10.53
2022-11-30T22:03:10.151Z,10.70
2022-11-30T22:06:02.416Z,10.40
2022-11-30T22:08:48.180Z,10.03
2022-11-30T22:11:35.916Z,10.20
2022-11-30T22:14:21.198Z,10.03
2022-11-30T22:17:06.589Z,10.07
2022-11-30T22:19:52.054Z,9.93
2022-11-30T22:22:37.564Z,9.77
2022-11-30T22:25:23.047Z,9.83
2022-11-30T22:28:08.658Z,9.97
2022-11-30T22:30:54.289Z,11.37
2022-11-30T22:33:41.424Z,10.13
2022-11-30T22:36:30.154Z,10.10
2022-11-30T22:39:20.647Z,10.57
2022-11-30T22:42:06.165Z,9.70
2022-11-30T22:44:51.751Z,9.60
2022-11-30T22:47:37.293Z,8.63
2022-11-30T22:50:22.774Z,8.10
2022-11-30T22:53:08.440Z,10.03
2022-11-30T22:55:54.385Z,9.13
2022-11-30T22:58:41.589Z,9.23
2022-11-30T23:01:35.591Z,8.87
2022-11-30T23:04:23.399Z,9.82
2022-11-30T23:07:08.902Z,8.63
2022-11-30T23:09:55.936Z,8.47
2022-11-30T23:12:59.141Z,9.03
2022-11-30T23:15:45.329Z,8.90
2022-11-30T23:18:32.709Z,8.03
2022-11-30T23:21:20.924Z,7.83
2022-11-30T23:24:08.734Z,8.47
2022-11-30T23:26:54.169Z,8.80
2022-11-30T23:29:40.483Z,8.17
2022-11-30T23:32:26.084Z,8.10
2022-11-30T23:35:11.676Z,8.70
2022-11-30T23:37:57.261Z,8.50
2022-11-30T23:40:42.782Z,8.30
2022-11-30T23:43:28.188Z,8.67
2022-11-30T23:46:14.662Z,7.43
2022-11-30T23:49:00.276Z,7.50
2022-11-30T23:51:45.895Z,8.10
2022-11-30T23:54:31.464Z,8.17
2022-11-30T23:57:16.730Z,8.03
